createdAt,value
2022-09-30T00:01:02.955Z,84.11
2022-09-30T00:03:30.526Z,83.99
2022-09-30T00:06:03.201Z,84.00
2022-09-30T00:08:33.269Z,83.87
2022-09-30T00:11:01.708Z,84.18
2022-09-30T00:13:29.220Z,83.96
2022-09-30T00:15:56.771Z,84.14
2022-09-30T00:18:24.234Z,83.85
2022-09-30T00:20:53.114Z,84.17
2022-09-30T00:23:22.211Z,84.13
2022-09-30T00:25:49.866Z,84.03
2022-09-30T00:28:17.518Z,83.99
2022-09-30T00:30:44.982Z,83.94
2022-09-30T00:33:12.480Z,84.15
2022-09-30T00:35:40.178Z,83.82
2022-09-30T00:38:07.703Z,83.67
2022-09-30T00:40:38.632Z,83.65
2022-09-30T00:43:07.039Z,83.68
2022-09-30T00:45:34.512Z,83.61
2022-09-30T00:48:03.223Z,83.60
2022-09-30T00:50:33.528Z,83.69
2022-09-30T00:53:03.264Z,83.92
2022-09-30T00:55:32.500Z,83.65
2022-09-30T00:58:01.386Z,83.73
2022-09-30T01:00:28.909Z,83.93
2022-09-30T01:02:56.443Z,83.66
2022-09-30T01:05:24.232Z,83.96
2022-09-30T01:07:51.770Z,83.84
2022-09-30T01:10:19.268Z,83.81
2022-09-30T01:12:46.732Z,83.89
2022-09-30T01:15:15.708Z,83.91
2022-09-30T01:17:46.973Z,83.85
2022-09-30T01:20:21.793Z,83.82
2022-09-30T01:22:50.284Z,83.75
2022-09-30T01:25:27.530Z,83.90
2022-09-30T01:28:00.709Z,83.85
2022-09-30T01:30:38.222Z,83.55
2022-09-30T01:33:18.154Z,83.41
2022-09-30T01:35:51.096Z,83.60
2022-09-30T01:38:19.834Z,83.74
2022-09-30T01:40:48.741Z,83.81
2022-09-30T01:43:19.684Z,83.65
2022-09-30T01:45:50.091Z,83.42
2022-09-30T01:48:18.876Z,83.44
2022-09-30T01:50:47.873Z,83.25
2022-09-30T01:53:16.825Z,83.23
2022-09-30T01:55:46.768Z,83.40
2022-09-30T01:58:15.461Z,83.63
2022-09-30T02:00:43.568Z,83.53
2022-09-30T02:03:12.780Z,83.42
2022-09-30T02:05:41.626Z,83.49
2022-09-30T02:08:10.464Z,83.50
2022-09-30T02:10:40.552Z,83.55
2022-09-30T02:13:10.710Z,83.57
2022-09-30T02:15:40.674Z,83.55
2022-09-30T02:18:09.501Z,83.46
2022-09-30T02:20:38.590Z,83.35
2022-09-30T02:23:07.357Z,83.63
2022-09-30T02:25:35.398Z,83.41
2022-09-30T02:28:05.227Z,83.57
2022-09-30T02:30:33.206Z,83.25
2022-09-30T02:33:01.042Z,83.25
2022-09-30T02:35:30.031Z,83.06
2022-09-30T02:37:59.425Z,83.21
2022-09-30T02:40:27.880Z,82.95
2022-09-30T02:42:55.383Z,82.87
2022-09-30T02:45:23.189Z,83.39
2022-09-30T02:47:55.405Z,83.22
2022-09-30T02:50:24.461Z,83.51
2022-09-30T02:52:55.482Z,83.25
2022-09-30T02:55:25.385Z,83.02
2022-09-30T02:57:55.682Z,83.45
2022-09-30T03:00:23.979Z,83.33
2022-09-30T03:02:51.920Z,82.96
2022-09-30T03:05:19.763Z,83.21
2022-09-30T03:07:47.298Z,83.23
2022-09-30T03:10:15.194Z,83.30
2022-09-30T03:12:46.619Z,83.49
2022-09-30T03:15:18.077Z,83.33
2022-09-30T03:17:58.270Z,83.29
2022-09-30T03:20:36.500Z,83.28
2022-09-30T03:23:10.802Z,83.31
2022-09-30T03:25:40.192Z,82.83
2022-09-30T03:28:11.998Z,83.10
2022-09-30T03:30:43.414Z,83.45
2022-09-30T03:33:11.348Z,83.12
2022-09-30T03:35:42.496Z,83.46
2022-09-30T03:38:10.878Z,83.31
2022-09-30T03:40:38.973Z,83.04
2022-09-30T03:43:07.142Z,83.29
2022-09-30T03:45:36.907Z,83.11
2022-09-30T03:48:04.866Z,83.17
2022-09-30T03:50:32.378Z,83.24
2022-09-30T03:52:59.833Z,83.31
2022-09-30T03:55:27.588Z,83.21
2022-09-30T03:57:55.040Z,83.39
2022-09-30T04:00:22.560Z,83.41
2022-09-30T04:02:55.825Z,83.41
2022-09-30T04:05:25.315Z,83.26
2022-09-30T04:07:52.770Z,83.13
2022-09-30T04:10:20.244Z,83.11
2022-09-30T04:12:47.745Z,83.31
2022-09-30T04:15:15.283Z,83.56
2022-09-30T04:17:43.308Z,83.50
2022-09-30T04:20:12.749Z,83.13
2022-09-30T04:22:40.264Z,83.48
2022-09-30T04:25:08.814Z,83.29
2022-09-30T04:27:36.384Z,83.28
2022-09-30T04:30:03.884Z,83.54
2022-09-30T04:32:31.347Z,83.25
2022-09-30T04:34:58.811Z,83.50
2022-09-30T04:37:27.599Z,83.36
2022-09-30T04:39:54.993Z,83.55
2022-09-30T04:42:22.471Z,83.45
2022-09-30T04:44:49.847Z,83.46
2022-09-30T04:47:17.345Z,83.32
2022-09-30T04:49:44.782Z,83.22
2022-09-30T04:52:12.279Z,83.02
2022-09-30T04:54:41.063Z,83.28
2022-09-30T04:57:08.978Z,83.30
2022-09-30T04:59:36.927Z,83.29
2022-09-30T05:02:05.429Z,83.40
2022-09-30T05:04:33.814Z,83.02
2022-09-30T05:07:01.769Z,83.21
2022-09-30T05:09:29.226Z,83.15
2022-09-30T05:11:58.108Z,83.30
2022-09-30T05:14:25.561Z,83.23
2022-09-30T05:16:53.026Z,83.49
2022-09-30T05:19:20.577Z,83.43
2022-09-30T05:21:48.100Z,83.52
2022-09-30T05:24:15.876Z,83.29
2022-09-30T05:26:43.344Z,83.43
2022-09-30T05:29:12.263Z,83.38
2022-09-30T05:31:39.951Z,83.50
2022-09-30T05:34:07.515Z,83.42
2022-09-30T05:36:35.038Z,83.39
2022-09-30T05:39:02.501Z,83.28
2022-09-30T05:41:29.967Z,83.33
2022-09-30T05:44:01.225Z,83.33
2022-09-30T05:46:30.141Z,83.20
2022-09-30T05:48:57.648Z,83.19
2022-09-30T05:51:25.112Z,83.18
2022-09-30T05:53:52.752Z,83.37
2022-09-30T05:56:20.230Z,83.41
2022-09-30T05:58:47.720Z,83.80
2022-09-30T06:01:16.351Z,83.74
2022-09-30T06:03:45.457Z,83.79
2022-09-30T06:06:13.120Z,83.67
2022-09-30T06:08:41.321Z,83.45
2022-09-30T06:11:11.877Z,83.53
2022-09-30T06:13:39.691Z,83.59
2022-09-30T06:16:07.873Z,83.57
2022-09-30T06:18:35.431Z,83.66
2022-09-30T06:21:05.236Z,83.56
2022-09-30T06:23:35.005Z,83.50
2022-09-30T06:26:02.796Z,83.63
2022-09-30T06:28:30.217Z,83.60
2022-09-30T06:30:57.745Z,83.50
2022-09-30T06:33:25.218Z,83.74
2022-09-30T06:35:52.632Z,83.51
2022-09-30T06:38:22.715Z,83.62
2022-09-30T06:40:50.453Z,83.61
2022-09-30T06:43:18.042Z,83.85
2022-09-30T06:45:46.192Z,83.67
2022-09-30T06:48:13.788Z,84.03
2022-09-30T06:50:44.228Z,83.88
2022-09-30T06:53:14.832Z,84.21
2022-09-30T06:55:43.666Z,84.16
2022-09-30T06:58:14.558Z,83.99
2022-09-30T07:00:42.178Z,84.19
2022-09-30T07:03:11.515Z,83.89
2022-09-30T07:05:39.026Z,83.85
2022-09-30T07:08:09.032Z,84.03
2022-09-30T07:10:36.549Z,83.85
2022-09-30T07:13:05.376Z,84.06
2022-09-30T07:15:32.829Z,84.31
2022-09-30T07:18:00.649Z,84.19
2022-09-30T07:20:28.164Z,84.06
2022-09-30T07:22:55.576Z,84.11
2022-09-30T07:25:23.083Z,84.55
2022-09-30T07:27:50.543Z,84.23
2022-09-30T07:30:26.816Z,84.17
2022-09-30T07:32:54.834Z,84.17
2022-09-30T07:35:22.465Z,84.63
2022-09-30T07:37:50.422Z,84.57
2022-09-30T07:40:17.925Z,84.75
2022-09-30T07:42:45.884Z,86.29
2022-09-30T07:45:15.950Z,85.05
2022-09-30T07:47:46.636Z,84.38
2022-09-30T07:50:17.422Z,84.46
2022-09-30T07:52:44.914Z,83.79
2022-09-30T07:55:12.480Z,83.59
2022-09-30T07:57:39.918Z,83.63
2022-09-30T08:00:29.847Z,83.82
2022-09-30T08:02:57.064Z,83.88
2022-09-30T08:05:24.601Z,83.74
2022-09-30T08:07:52.082Z,83.93
2022-09-30T08:12:48.017Z,83.64
2022-09-30T08:15:15.559Z,83.98
2022-09-30T08:17:43.030Z,84.28
2022-09-30T08:20:13.790Z,84.04
2022-09-30T08:22:42.490Z,83.98
2022-09-30T08:25:10.209Z,83.43
2022-09-30T08:27:37.916Z,83.39
2022-09-30T08:30:05.895Z,83.21
2022-09-30T08:32:33.452Z,83.42
2022-09-30T08:35:00.887Z,82.85
2022-09-30T08:37:29.743Z,83.17
2022-09-30T08:39:57.253Z,85.12
2022-09-30T08:42:41.416Z,83.40
2022-09-30T08:45:15.778Z,83.72
2022-09-30T08:47:45.066Z,82.66
2022-09-30T08:50:16.248Z,82.76
2022-09-30T08:52:49.124Z,82.72
2022-09-30T08:55:17.691Z,83.86
2022-09-30T08:57:47.490Z,82.57
2022-09-30T09:00:16.196Z,82.27
2022-09-30T09:02:45.353Z,84.66
2022-09-30T09:05:14.694Z,82.00
2022-09-30T09:07:43.660Z,81.05
2022-09-30T09:10:18.025Z,81.31
2022-09-30T09:12:47.310Z,80.98
2022-09-30T09:15:17.915Z,81.38
2022-09-30T09:18:11.309Z,81.61
2022-09-30T09:20:41.882Z,80.80
2022-09-30T09:23:10.109Z,80.98
2022-09-30T09:25:40.246Z,81.11
2022-09-30T09:28:10.980Z,81.50
2022-09-30T09:30:41.764Z,79.56
2022-09-30T09:33:12.366Z,79.61
2022-09-30T09:35:41.757Z,79.93
2022-09-30T09:38:26.799Z,79.84
2022-09-30T09:40:58.933Z,79.83
2022-09-30T09:43:30.515Z,79.73
2022-09-30T09:46:00.378Z,79.18
2022-09-30T09:48:29.176Z,79.78
2022-09-30T09:50:58.889Z,80.02
2022-09-30T09:53:39.607Z,79.72
2022-09-30T09:56:18.827Z,79.53
2022-09-30T09:59:05.769Z,78.91
2022-09-30T10:01:33.639Z,80.96
2022-09-30T10:04:09.617Z,79.27
2022-09-30T10:06:43.935Z,78.74
2022-09-30T10:09:16.200Z,78.41
2022-09-30T10:11:45.060Z,78.43
2022-09-30T10:14:12.553Z,77.39
2022-09-30T10:16:40.080Z,77.21
2022-09-30T10:19:24.329Z,77.63
2022-09-30T10:21:54.033Z,77.90
2022-09-30T10:24:28.042Z,78.37
2022-09-30T10:26:56.866Z,78.28
2022-09-30T10:29:28.521Z,78.75
2022-09-30T10:31:59.103Z,76.21
2022-09-30T10:34:28.163Z,77.15
2022-09-30T10:36:55.786Z,76.88
2022-09-30T10:39:24.762Z,77.89
2022-09-30T10:41:52.364Z,77.70
2022-09-30T10:44:21.966Z,77.25
2022-09-30T10:46:50.434Z,76.23
2022-09-30T10:49:25.950Z,76.54
2022-09-30T10:51:53.435Z,76.50
2022-09-30T10:54:38.145Z,76.65
2022-09-30T10:57:05.529Z,77.76
2022-09-30T10:59:35.171Z,77.08
2022-09-30T11:02:10.768Z,76.94
2022-09-30T11:04:38.832Z,76.84
2022-09-30T11:07:11.638Z,76.76
2022-09-30T11:09:39.876Z,76.83
2022-09-30T11:12:11.104Z,76.20
2022-09-30T11:14:43.781Z,76.14
2022-09-30T11:17:12.367Z,75.99
2022-09-30T11:19:40.856Z,75.86
2022-09-30T11:22:18.741Z,74.82
2022-09-30T11:24:46.657Z,75.25
2022-09-30T11:27:16.754Z,73.50
2022-09-30T11:29:48.854Z,75.11
2022-09-30T11:32:19.599Z,75.09
2022-09-30T11:34:49.792Z,75.79
2022-09-30T11:37:18.487Z,75.71
2022-09-30T11:39:52.351Z,75.55
2022-09-30T11:42:21.034Z,75.24
2022-09-30T11:44:49.901Z,73.13
2022-09-30T11:47:24.427Z,70.47
2022-09-30T11:49:55.878Z,73.29
2022-09-30T11:52:24.949Z,73.93
2022-09-30T11:55:02.289Z,74.96
2022-09-30T11:57:31.180Z,74.73
2022-09-30T12:00:00.316Z,73.76
2022-09-30T12:02:31.817Z,72.80
2022-09-30T12:05:00.528Z,73.72
2022-09-30T12:07:31.460Z,74.62
2022-09-30T12:09:59.157Z,73.75
2022-09-30T12:12:26.669Z,74.91
2022-09-30T12:14:54.904Z,72.83
2022-09-30T12:17:26.984Z,73.05
2022-09-30T12:19:55.435Z,73.04
2022-09-30T12:22:23.404Z,74.24
2022-09-30T12:24:50.822Z,71.70
2022-09-30T12:27:19.923Z,70.65
2022-09-30T12:30:07.483Z,71.08
2022-09-30T12:32:52.794Z,69.82
2022-09-30T12:35:30.148Z,73.39
2022-09-30T12:38:01.039Z,73.58
2022-09-30T12:40:33.036Z,73.24
2022-09-30T12:43:16.455Z,74.63
2022-09-30T12:45:54.946Z,69.94
2022-09-30T12:48:24.138Z,74.00
2022-09-30T12:50:53.061Z,74.32
2022-09-30T12:53:21.793Z,74.28
2022-09-30T12:55:49.293Z,71.22
2022-09-30T12:58:19.957Z,72.56
2022-09-30T13:00:58.749Z,73.26
2022-09-30T13:03:27.663Z,73.58
2022-09-30T13:05:57.736Z,72.95
2022-09-30T13:08:51.944Z,71.67
2022-09-30T13:11:37.326Z,74.50
2022-09-30T13:14:13.623Z,72.78
2022-09-30T13:17:01.115Z,74.54
2022-09-30T13:19:36.156Z,74.51
2022-09-30T13:22:24.275Z,70.35
2022-09-30T13:25:04.553Z,74.22
2022-09-30T13:27:34.031Z,72.68
2022-09-30T13:30:01.630Z,71.12
2022-09-30T13:32:33.732Z,72.85
2022-09-30T13:35:02.538Z,74.00
2022-09-30T13:37:40.107Z,72.53
2022-09-30T13:40:28.849Z,72.18
2022-09-30T13:43:08.929Z,72.85
2022-09-30T13:45:39.415Z,73.58
2022-09-30T13:48:11.163Z,71.26
2022-09-30T13:50:42.402Z,75.05
2022-09-30T13:53:13.599Z,74.37
2022-09-30T13:55:42.368Z,73.24
2022-09-30T13:58:16.514Z,74.71
2022-09-30T14:00:47.563Z,72.16
2022-09-30T14:03:18.041Z,74.98
2022-09-30T14:05:49.451Z,73.30
2022-09-30T14:08:31.748Z,74.16
2022-09-30T14:11:02.719Z,69.47
2022-09-30T14:13:34.226Z,70.13
2022-09-30T14:16:16.597Z,74.86
2022-09-30T14:18:54.454Z,73.16
2022-09-30T14:21:32.126Z,74.50
2022-09-30T14:24:00.216Z,74.29
2022-09-30T14:26:34.133Z,71.65
2022-09-30T14:29:02.965Z,73.12
2022-09-30T14:31:32.284Z,71.12
2022-09-30T14:33:59.730Z,71.68
2022-09-30T14:36:27.162Z,72.97
2022-09-30T14:38:58.111Z,72.79
2022-09-30T14:41:25.595Z,71.79
2022-09-30T14:43:54.086Z,73.30
2022-09-30T14:46:26.693Z,73.35
2022-09-30T14:48:54.279Z,74.46
2022-09-30T14:51:23.821Z,72.75
2022-09-30T14:53:56.663Z,70.88
2022-09-30T14:56:27.271Z,74.40
2022-09-30T14:58:57.702Z,73.89
2022-09-30T15:01:26.186Z,74.62
2022-09-30T15:03:55.463Z,74.94
2022-09-30T15:06:23.559Z,74.55
2022-09-30T15:08:51.160Z,70.56
2022-09-30T15:11:20.370Z,75.51
2022-09-30T15:13:48.304Z,72.86
2022-09-30T15:16:23.404Z,72.61
2022-09-30T15:18:50.957Z,72.86
2022-09-30T15:21:18.443Z,71.54
2022-09-30T15:23:48.182Z,72.32
2022-09-30T15:26:15.649Z,72.38
2022-09-30T15:28:44.486Z,74.97
2022-09-30T15:31:16.026Z,74.36
2022-09-30T15:33:43.450Z,73.46
2022-09-30T15:36:14.453Z,72.67
2022-09-30T15:38:42.089Z,73.53
2022-09-30T15:41:10.078Z,71.80
2022-09-30T15:43:39.248Z,74.38
2022-09-30T15:46:28.061Z,73.82
2022-09-30T15:48:57.673Z,73.57
2022-09-30T15:51:26.606Z,74.63
2022-09-30T15:53:54.143Z,73.58
2022-09-30T15:56:25.618Z,73.50
2022-09-30T15:58:56.661Z,72.77
2022-09-30T16:01:25.113Z,74.07
2022-09-30T16:03:54.711Z,74.74
2022-09-30T16:06:27.886Z,73.56
2022-09-30T16:09:01.481Z,74.06
2022-09-30T16:11:30.152Z,74.24
2022-09-30T16:13:57.936Z,75.21
2022-09-30T16:16:25.869Z,75.66
2022-09-30T16:18:54.102Z,75.91
2022-09-30T16:21:51.874Z,75.59
2022-09-30T16:24:37.733Z,73.79
2022-09-30T16:27:20.395Z,75.52
2022-09-30T16:29:49.634Z,75.71
2022-09-30T16:32:17.066Z,75.88
2022-09-30T16:34:44.525Z,76.07
2022-09-30T16:37:12.459Z,75.07
2022-09-30T16:39:39.946Z,75.62
2022-09-30T16:42:07.395Z,75.78
2022-09-30T16:44:37.833Z,76.21
2022-09-30T16:47:05.267Z,76.37
2022-09-30T16:49:34.612Z,76.22
2022-09-30T16:52:02.412Z,76.10
2022-09-30T16:54:29.815Z,76.05
2022-09-30T16:58:54.728Z,70.34
2022-09-30T17:05:40.913Z,68.27
2022-09-30T17:08:11.097Z,68.50
2022-09-30T17:10:38.699Z,67.42
2022-09-30T17:13:06.299Z,67.06
2022-09-30T17:15:37.279Z,67.18
2022-09-30T17:18:56.463Z,66.61
2022-09-30T17:21:26.982Z,66.65
2022-09-30T17:23:55.789Z,66.22
2022-09-30T17:26:23.960Z,66.11
2022-09-30T17:28:51.674Z,66.19
2022-09-30T17:31:19.375Z,66.08
2022-09-30T17:33:47.021Z,65.98
2022-09-30T17:36:16.115Z,66.06
2022-09-30T17:38:43.705Z,65.98
2022-09-30T17:41:31.707Z,66.03
2022-09-30T17:44:02.552Z,66.02
2022-09-30T17:46:41.365Z,65.90
2022-09-30T17:49:09.541Z,66.34
2022-09-30T17:51:39.119Z,66.09
2022-09-30T17:54:07.774Z,66.02
2022-09-30T17:56:36.550Z,66.03
2022-09-30T17:59:04.581Z,66.03
2022-09-30T18:01:32.462Z,66.04
2022-09-30T18:04:01.002Z,65.89
2022-09-30T18:06:30.060Z,66.03
2022-09-30T18:09:00.423Z,66.35
2022-09-30T18:11:28.998Z,66.07
2022-09-30T18:13:58.039Z,66.09
2022-09-30T18:16:30.070Z,66.18
2022-09-30T18:18:58.171Z,66.29
2022-09-30T18:21:26.001Z,66.26
2022-09-30T18:23:54.184Z,66.24
2022-09-30T18:26:24.076Z,66.37
2022-09-30T18:28:52.601Z,66.28
2022-09-30T18:31:28.291Z,66.13
2022-09-30T18:33:56.169Z,66.45
2022-09-30T18:36:24.342Z,66.27
2022-09-30T18:38:52.045Z,66.18
2022-09-30T18:41:19.726Z,66.43
2022-09-30T18:43:51.432Z,66.19
2022-09-30T18:46:20.565Z,66.35
2022-09-30T18:48:49.780Z,66.63
2022-09-30T18:51:18.801Z,66.30
2022-09-30T18:53:46.495Z,66.21
2022-09-30T18:56:14.072Z,66.27
2022-09-30T18:58:41.895Z,66.19
2022-09-30T19:01:11.136Z,66.29
2022-09-30T19:03:38.867Z,66.16
2022-09-30T19:06:08.459Z,66.39
2022-09-30T19:08:36.112Z,66.50
2022-09-30T19:11:11.997Z,66.40
2022-09-30T19:13:40.829Z,66.44
2022-09-30T19:16:10.983Z,66.31
2022-09-30T19:18:39.184Z,66.59
2022-09-30T19:21:09.992Z,66.54
2022-09-30T19:23:37.788Z,66.57
2022-09-30T19:26:06.112Z,66.43
2022-09-30T19:28:37.810Z,66.61
2022-09-30T19:31:12.273Z,66.50
2022-09-30T19:33:48.758Z,66.42
2022-09-30T19:36:23.254Z,66.58
2022-09-30T19:38:53.390Z,66.20
2022-09-30T19:41:24.602Z,66.46
2022-09-30T19:43:52.396Z,66.27
2022-09-30T19:46:21.642Z,66.42
2022-09-30T19:48:49.221Z,66.54
2022-09-30T19:51:18.030Z,66.32
2022-09-30T19:54:01.300Z,66.50
2022-09-30T19:56:33.526Z,65.87
2022-09-30T19:59:01.204Z,66.35
2022-09-30T20:01:31.227Z,66.26
2022-09-30T20:04:00.463Z,66.55
2022-09-30T20:06:28.667Z,66.31
2022-09-30T20:08:59.023Z,66.43
2022-09-30T20:11:28.764Z,66.30
2022-09-30T20:14:11.800Z,66.65
2022-09-30T20:16:41.361Z,66.46
2022-09-30T20:19:09.474Z,66.11
2022-09-30T20:21:37.922Z,66.04
2022-09-30T20:24:05.918Z,66.22
2022-09-30T20:26:34.284Z,66.28
2022-09-30T20:29:02.289Z,66.27
2022-09-30T20:31:30.410Z,65.94
2022-09-30T20:34:00.746Z,65.73
2022-09-30T20:36:29.379Z,65.92
2022-09-30T20:38:59.079Z,66.08
2022-09-30T20:41:27.004Z,65.68
2022-09-30T20:43:54.827Z,65.84
2022-09-30T20:46:23.583Z,65.99
2022-09-30T20:48:51.485Z,66.01
2022-09-30T20:51:21.689Z,65.93
2022-09-30T20:53:51.963Z,65.85
2022-09-30T20:56:22.938Z,65.85
2022-09-30T20:58:53.077Z,65.53
2022-09-30T21:01:21.958Z,65.34
2022-09-30T21:03:51.668Z,65.42
2022-09-30T21:06:22.386Z,65.33
2022-09-30T21:08:50.957Z,65.43
2022-09-30T21:11:19.538Z,65.61
2022-09-30T21:13:50.465Z,65.41
2022-09-30T21:16:20.437Z,65.33
2022-09-30T21:18:48.544Z,65.23
2022-09-30T21:21:17.694Z,65.27
2022-09-30T21:23:47.141Z,65.37
2022-09-30T21:26:16.945Z,65.44
2022-09-30T21:28:49.261Z,65.37
2022-09-30T21:31:19.980Z,65.11
2022-09-30T21:33:51.267Z,65.29
2022-09-30T21:36:21.085Z,64.80
2022-09-30T21:38:50.356Z,64.95
2022-09-30T21:41:19.570Z,64.86
2022-09-30T21:43:47.262Z,64.97
2022-09-30T21:46:16.580Z,64.93
2022-09-30T21:48:45.449Z,64.94
2022-09-30T21:51:13.595Z,64.89
2022-09-30T21:53:41.523Z,64.64
2022-09-30T21:56:11.846Z,64.38
2022-09-30T21:58:39.927Z,64.84
2022-09-30T22:01:08.241Z,64.67
2022-09-30T22:03:38.563Z,64.75
2022-09-30T22:06:08.416Z,64.23
2022-09-30T22:08:40.148Z,64.50
2022-09-30T22:11:11.045Z,64.17
2022-09-30T22:13:40.835Z,64.33
2022-09-30T22:16:09.007Z,64.32
2022-09-30T22:18:36.847Z,64.20
2022-09-30T22:21:05.690Z,63.97
2022-09-30T22:23:33.552Z,64.44
2022-09-30T22:26:07.661Z,64.10
2022-09-30T22:28:36.830Z,63.83
2022-09-30T22:31:11.978Z,63.87
2022-09-30T22:33:56.909Z,64.15
2022-09-30T22:36:42.240Z,63.87
2022-09-30T22:39:11.151Z,64.12
2022-09-30T22:41:39.235Z,64.04
2022-09-30T22:44:08.770Z,63.98
2022-09-30T22:46:36.941Z,63.86
2022-09-30T22:49:04.927Z,63.76
2022-09-30T22:51:33.526Z,63.86
2022-09-30T22:54:01.554Z,63.85
2022-09-30T22:56:29.185Z,63.95
2022-09-30T22:58:56.946Z,63.84
2022-09-30T23:01:27.023Z,63.86
2022-09-30T23:03:54.956Z,63.58
2022-09-30T23:06:24.567Z,63.51
2022-09-30T23:08:54.399Z,63.63
2022-09-30T23:11:23.276Z,63.52
2022-09-30T23:13:58.889Z,63.32
2022-09-30T23:16:28.255Z,63.53
2022-09-30T23:18:56.280Z,63.96
2022-09-30T23:21:23.905Z,63.22
2022-09-30T23:23:51.641Z,63.54
2022-09-30T23:26:20.666Z,63.62
2022-09-30T23:28:48.671Z,63.86
2022-09-30T23:31:17.556Z,63.92
2022-09-30T23:33:48.124Z,64.39
2022-09-30T23:36:16.973Z,64.56
2022-09-30T23:38:44.642Z,65.04
2022-09-30T23:41:13.111Z,65.81
2022-09-30T23:43:48.351Z,66.78
2022-09-30T23:46:17.913Z,67.38
2022-09-30T23:48:47.133Z,67.47
2022-09-30T23:51:15.396Z,68.08
2022-09-30T23:53:43.517Z,68.68
2022-09-30T23:56:13.530Z,69.01
2022-09-30T23:58:41.322Z,69.37
